sensor_id;sensor_type;location;lat;lon;timestamp;temperature;humidity
22680;DHT22;11507;44.858;10.374;2022-09-09T00:03:46;18.40;99.90
22680;DHT22;11507;44.858;10.374;2022-09-09T00:09:24;18.40;99.90
22680;DHT22;11507;44.858;10.374;2022-09-09T00:12:11;18.50;99.90
22680;DHT22;11507;44.858;10.374;2022-09-09T00:17:18;18.50;99.90
22680;DHT22;11507;44.858;10.374;2022-09-09T00:20:14;18.60;99.90
22680;DHT22;11507;44.858;10.374;2022-09-09T00:22:50;18.50;99.90
22680;DHT22;11507;44.858;10.374;2022-09-09T00:25:32;18.50;99.90
22680;DHT22;11507;44.858;10.374;2022-09-09T00:28:00;18.40;99.90
22680;DHT22;11507;44.858;10.374;2022-09-09T00:30:29;18.40;99.90
22680;DHT22;11507;44.858;10.374;2022-09-09T00:33:03;18.30;99.90
22680;DHT22;11507;44.858;10.374;2022-09-09T00:35:40;18.30;99.90
22680;DHT22;11507;44.858;10.374;2022-09-09T00:38:34;18.20;99.90
22680;DHT22;11507;44.858;10.374;2022-09-09T00:41:07;18.20;99.90
22680;DHT22;11507;44.858;10.374;2022-09-09T00:43:38;18.30;99.90
22680;DHT22;11507;44.858;10.374;2022-09-09T00:54:32;18.30;99.90
22680;DHT22;11507;44.858;10.374;2022-09-09T00:57:26;18.40;99.90
22680;DHT22;11507;44.858;10.374;2022-09-09T01:11:04;18.50;99.90
22680;DHT22;11507;44.858;10.374;2022-09-09T01:13:34;18.40;99.90
22680;DHT22;11507;44.858;10.374;2022-09-09T01:16:10;18.30;99.90
22680;DHT22;11507;44.858;10.374;2022-09-09T01:18:45;18.20;99.90
22680;DHT22;11507;44.858;10.374;2022-09-09T01:27:18;18.10;99.90
22680;DHT22;11507;44.858;10.374;2022-09-09T01:29:46;18.00;99.90
22680;DHT22;11507;44.858;10.374;2022-09-09T01:32:48;17.90;99.90
22680;DHT22;11507;44.858;10.374;2022-09-09T01:37:52;17.80;99.90
22680;DHT22;11507;44.858;10.374;2022-09-09T01:40:19;17.80;99.90
22680;DHT22;11507;44.858;10.374;2022-09-09T01:42:47;17.70;99.90
22680;DHT22;11507;44.858;10.374;2022-09-09T01:45:14;17.70;99.90
22680;DHT22;11507;44.858;10.374;2022-09-09T01:47:41;17.70;99.90
22680;DHT22;11507;44.858;10.374;2022-09-09T01:50:26;17.60;99.90
22680;DHT22;11507;44.858;10.374;2022-09-09T01:52:59;17.60;99.90
22680;DHT22;11507;44.858;10.374;2022-09-09T01:55:40;17.60;99.90
22680;DHT22;11507;44.858;10.374;2022-09-09T01:58:45;17.60;99.90
22680;DHT22;11507;44.858;10.374;2022-09-09T02:03:56;17.50;99.90
22680;DHT22;11507;44.858;10.374;2022-09-09T02:09:02;17.30;99.90
22680;DHT22;11507;44.858;10.374;2022-09-09T02:11:30;17.30;99.90
22680;DHT22;11507;44.858;10.374;2022-09-09T02:14:10;17.20;99.90
22680;DHT22;11507;44.858;10.374;2022-09-09T02:16:45;17.20;99.90
22680;DHT22;11507;44.858;10.374;2022-09-09T02:19:21;17.20;99.90
22680;DHT22;11507;44.858;10.374;2022-09-09T02:22:21;17.10;99.90
22680;DHT22;11507;44.858;10.374;2022-09-09T02:24:50;17.10;99.90
22680;DHT22;11507;44.858;10.374;2022-09-09T02:27:23;16.90;99.90
22680;DHT22;11507;44.858;10.374;2022-09-09T02:29:50;16.90;99.90
22680;DHT22;11507;44.858;10.374;2022-09-09T02:32:23;16.70;99.90
22680;DHT22;11507;44.858;10.374;2022-09-09T02:34:59;16.70;99.90
22680;DHT22;11507;44.858;10.374;2022-09-09T02:37:29;16.70;99.90
22680;DHT22;11507;44.858;10.374;2022-09-09T02:39:56;16.70;99.90
22680;DHT22;11507;44.858;10.374;2022-09-09T02:42:23;16.60;99.90
22680;DHT22;11507;44.858;10.374;2022-09-09T02:44:53;16.70;99.90
22680;DHT22;11507;44.858;10.374;2022-09-09T02:57:53;16.50;99.90
22680;DHT22;11507;44.858;10.374;2022-09-09T03:00:31;16.50;99.90
22680;DHT22;11507;44.858;10.374;2022-09-09T03:03:03;16.60;99.90
22680;DHT22;11507;44.858;10.374;2022-09-09T03:05:31;16.60;99.90
22680;DHT22;11507;44.858;10.374;2022-09-09T03:07:58;16.60;99.90
22680;DHT22;11507;44.858;10.374;2022-09-09T03:10:25;16.50;99.90
22680;DHT22;11507;44.858;10.374;2022-09-09T03:12:51;16.50;99.90
22680;DHT22;11507;44.858;10.374;2022-09-09T03:15:18;16.50;99.90
22680;DHT22;11507;44.858;10.374;2022-09-09T03:17:44;16.50;99.90
22680;DHT22;11507;44.858;10.374;2022-09-09T03:20:10;16.40;99.90
22680;DHT22;11507;44.858;10.374;2022-09-09T03:22:38;16.40;99.90
22680;DHT22;11507;44.858;10.374;2022-09-09T03:25:05;16.30;99.90
22680;DHT22;11507;44.858;10.374;2022-09-09T03:27:33;16.30;99.90
22680;DHT22;11507;44.858;10.374;2022-09-09T03:29:59;16.30;99.90
22680;DHT22;11507;44.858;10.374;2022-09-09T03:32:26;16.30;99.90
22680;DHT22;11507;44.858;10.374;2022-09-09T03:34:54;16.20;99.90
22680;DHT22;11507;44.858;10.374;2022-09-09T03:37:20;16.20;99.90
22680;DHT22;11507;44.858;10.374;2022-09-09T03:39:48;16.20;99.90
22680;DHT22;11507;44.858;10.374;2022-09-09T03:42:15;16.10;99.90
22680;DHT22;11507;44.858;10.374;2022-09-09T03:44:46;16.10;99.90
22680;DHT22;11507;44.858;10.374;2022-09-09T03:47:17;16.20;99.90
22680;DHT22;11507;44.858;10.374;2022-09-09T03:49:45;16.10;99.90
22680;DHT22;11507;44.858;10.374;2022-09-09T03:52:13;16.10;99.90
22680;DHT22;11507;44.858;10.374;2022-09-09T03:54:39;16.10;99.90
22680;DHT22;11507;44.858;10.374;2022-09-09T03:57:06;16.00;99.90
22680;DHT22;11507;44.858;10.374;2022-09-09T03:59:33;16.00;99.90
22680;DHT22;11507;44.858;10.374;2022-09-09T04:02:01;15.90;99.90
22680;DHT22;11507;44.858;10.374;2022-09-09T04:04:28;15.90;99.90
22680;DHT22;11507;44.858;10.374;2022-09-09T04:06:54;15.90;99.90
22680;DHT22;11507;44.858;10.374;2022-09-09T04:09:20;15.90;99.90
22680;DHT22;11507;44.858;10.374;2022-09-09T04:11:48;15.80;99.90
22680;DHT22;11507;44.858;10.374;2022-09-09T04:14:15;15.80;99.90
22680;DHT22;11507;44.858;10.374;2022-09-09T04:16:40;15.70;99.90
22680;DHT22;11507;44.858;10.374;2022-09-09T04:19:12;15.60;99.90
22680;DHT22;11507;44.858;10.374;2022-09-09T04:21:41;15.60;99.90
22680;DHT22;11507;44.858;10.374;2022-09-09T04:24:08;15.50;99.90
22680;DHT22;11507;44.858;10.374;2022-09-09T04:26:35;15.50;99.90
22680;DHT22;11507;44.858;10.374;2022-09-09T04:29:03;15.50;99.90
22680;DHT22;11507;44.858;10.374;2022-09-09T04:31:29;15.40;99.90
22680;DHT22;11507;44.858;10.374;2022-09-09T04:33:56;15.30;99.90
22680;DHT22;11507;44.858;10.374;2022-09-09T04:36:22;15.30;99.90
22680;DHT22;11507;44.858;10.374;2022-09-09T04:38:53;15.20;99.90
22680;DHT22;11507;44.858;10.374;2022-09-09T04:41:19;15.20;99.90
22680;DHT22;11507;44.858;10.374;2022-09-09T04:43:49;15.20;99.90
22680;DHT22;11507;44.858;10.374;2022-09-09T04:46:15;15.10;99.90
22680;DHT22;11507;44.858;10.374;2022-09-09T04:48:43;15.20;99.90
22680;DHT22;11507;44.858;10.374;2022-09-09T04:51:13;15.10;99.90
22680;DHT22;11507;44.858;10.374;2022-09-09T04:53:39;15.20;99.90
22680;DHT22;11507;44.858;10.374;2022-09-09T04:56:11;15.10;99.90
22680;DHT22;11507;44.858;10.374;2022-09-09T04:58:42;15.20;99.90
22680;DHT22;11507;44.858;10.374;2022-09-09T05:01:11;15.10;99.90
22680;DHT22;11507;44.858;10.374;2022-09-09T05:03:39;15.20;99.90
22680;DHT22;11507;44.858;10.374;2022-09-09T05:06:11;15.10;99.90
22680;DHT22;11507;44.858;10.374;2022-09-09T05:08:39;15.10;99.90
22680;DHT22;11507;44.858;10.374;2022-09-09T05:13:45;15.10;99.90
22680;DHT22;11507;44.858;10.374;2022-09-09T05:16:12;15.20;99.90
22680;DHT22;11507;44.858;10.374;2022-09-09T05:18:40;15.20;99.90
22680;DHT22;11507;44.858;10.374;2022-09-09T05:21:13;15.30;99.90
22680;DHT22;11507;44.858;10.374;2022-09-09T05:23:40;15.30;99.90
22680;DHT22;11507;44.858;10.374;2022-09-09T05:26:09;15.40;99.90
22680;DHT22;11507;44.858;10.374;2022-09-09T05:28:35;15.40;99.90
22680;DHT22;11507;44.858;10.374;2022-09-09T05:31:04;15.50;99.90
22680;DHT22;11507;44.858;10.374;2022-09-09T05:33:37;15.70;99.90
22680;DHT22;11507;44.858;10.374;2022-09-09T05:36:09;15.80;99.90
22680;DHT22;11507;44.858;10.374;2022-09-09T05:38:36;15.90;99.90
22680;DHT22;11507;44.858;10.374;2022-09-09T05:41:04;16.10;99.90
22680;DHT22;11507;44.858;10.374;2022-09-09T05:43:30;16.20;99.90
22680;DHT22;11507;44.858;10.374;2022-09-09T05:46:12;16.40;99.90
22680;DHT22;11507;44.858;10.374;2022-09-09T05:48:40;16.60;99.90
22680;DHT22;11507;44.858;10.374;2022-09-09T05:51:09;16.70;99.90
22680;DHT22;11507;44.858;10.374;2022-09-09T05:53:36;16.90;99.90
22680;DHT22;11507;44.858;10.374;2022-09-09T05:56:12;17.00;99.90
22680;DHT22;11507;44.858;10.374;2022-09-09T05:58:40;17.20;99.90
22680;DHT22;11507;44.858;10.374;2022-09-09T06:01:17;17.40;99.90
22680;DHT22;11507;44.858;10.374;2022-09-09T06:03:46;17.50;99.90
22680;DHT22;11507;44.858;10.374;2022-09-09T06:06:17;17.80;99.90
22680;DHT22;11507;44.858;10.374;2022-09-09T06:08:47;17.90;99.90
22680;DHT22;11507;44.858;10.374;2022-09-09T06:11:29;18.00;99.90
22680;DHT22;11507;44.858;10.374;2022-09-09T06:13:59;18.10;99.90
22680;DHT22;11507;44.858;10.374;2022-09-09T06:16:27;18.20;99.90
22680;DHT22;11507;44.858;10.374;2022-09-09T06:18:54;18.30;99.90
22680;DHT22;11507;44.858;10.374;2022-09-09T06:21:32;18.50;99.90
22680;DHT22;11507;44.858;10.374;2022-09-09T06:24:01;18.50;99.90
22680;DHT22;11507;44.858;10.374;2022-09-09T06:26:34;18.70;99.90
22680;DHT22;11507;44.858;10.374;2022-09-09T06:29:02;18.70;99.90
22680;DHT22;11507;44.858;10.374;2022-09-09T06:31:31;18.80;99.90
22680;DHT22;11507;44.858;10.374;2022-09-09T06:34:06;18.90;99.90
22680;DHT22;11507;44.858;10.374;2022-09-09T06:36:35;19.00;99.90
22680;DHT22;11507;44.858;10.374;2022-09-09T06:39:05;19.10;99.90
22680;DHT22;11507;44.858;10.374;2022-09-09T06:41:33;19.30;99.90
22680;DHT22;11507;44.858;10.374;2022-09-09T06:44:01;19.40;99.90
22680;DHT22;11507;44.858;10.374;2022-09-09T06:46:38;19.50;99.90
22680;DHT22;11507;44.858;10.374;2022-09-09T06:49:05;19.60;99.90
22680;DHT22;11507;44.858;10.374;2022-09-09T06:51:37;19.70;99.90
22680;DHT22;11507;44.858;10.374;2022-09-09T06:54:11;19.80;99.90
22680;DHT22;11507;44.858;10.374;2022-09-09T06:56:39;19.90;99.90
22680;DHT22;11507;44.858;10.374;2022-09-09T06:59:19;20.00;99.90
22680;DHT22;11507;44.858;10.374;2022-09-09T07:01:48;20.10;99.90
22680;DHT22;11507;44.858;10.374;2022-09-09T07:04:15;20.20;99.90
22680;DHT22;11507;44.858;10.374;2022-09-09T07:06:45;20.30;99.90
22680;DHT22;11507;44.858;10.374;2022-09-09T07:09:16;20.40;99.90
22680;DHT22;11507;44.858;10.374;2022-09-09T07:11:47;20.30;99.90
22680;DHT22;11507;44.858;10.374;2022-09-09T07:14:14;20.40;99.90
22680;DHT22;11507;44.858;10.374;2022-09-09T07:16:45;20.50;99.90
22680;DHT22;11507;44.858;10.374;2022-09-09T07:19:13;20.60;99.90
22680;DHT22;11507;44.858;10.374;2022-09-09T07:21:42;20.70;99.90
22680;DHT22;11507;44.858;10.374;2022-09-09T07:24:10;20.80;99.90
22680;DHT22;11507;44.858;10.374;2022-09-09T07:26:39;20.90;99.90
22680;DHT22;11507;44.858;10.374;2022-09-09T07:29:06;21.00;99.90
22680;DHT22;11507;44.858;10.374;2022-09-09T07:31:35;21.10;99.90
22680;DHT22;11507;44.858;10.374;2022-09-09T07:34:04;21.30;99.90
22680;DHT22;11507;44.858;10.374;2022-09-09T07:36:32;21.50;99.90
22680;DHT22;11507;44.858;10.374;2022-09-09T07:39:10;21.70;99.90
22680;DHT22;11507;44.858;10.374;2022-09-09T07:41:45;21.90;99.90
22680;DHT22;11507;44.858;10.374;2022-09-09T07:44:16;22.10;99.90
22680;DHT22;11507;44.858;10.374;2022-09-09T07:46:45;22.30;99.90
22680;DHT22;11507;44.858;10.374;2022-09-09T07:49:15;22.40;99.90
22680;DHT22;11507;44.858;10.374;2022-09-09T07:51:44;22.50;99.90
22680;DHT22;11507;44.858;10.374;2022-09-09T07:54:14;22.60;99.90
22680;DHT22;11507;44.858;10.374;2022-09-09T07:56:43;22.70;99.90
22680;DHT22;11507;44.858;10.374;2022-09-09T07:59:10;22.70;99.90
22680;DHT22;11507;44.858;10.374;2022-09-09T08:01:45;22.90;99.90
22680;DHT22;11507;44.858;10.374;2022-09-09T08:04:17;22.80;99.90
22680;DHT22;11507;44.858;10.374;2022-09-09T08:06:48;22.90;99.90
22680;DHT22;11507;44.858;10.374;2022-09-09T08:09:16;23.00;99.90
22680;DHT22;11507;44.858;10.374;2022-09-09T08:11:45;23.10;99.90
22680;DHT22;11507;44.858;10.374;2022-09-09T08:14:12;23.20;99.90
22680;DHT22;11507;44.858;10.374;2022-09-09T08:16:49;23.40;99.90
22680;DHT22;11507;44.858;10.374;2022-09-09T08:19:19;23.60;99.90
22680;DHT22;11507;44.858;10.374;2022-09-09T08:21:46;23.80;99.90
22680;DHT22;11507;44.858;10.374;2022-09-09T08:24:13;24.00;99.90
22680;DHT22;11507;44.858;10.374;2022-09-09T08:26:47;24.20;99.90
22680;DHT22;11507;44.858;10.374;2022-09-09T08:29:15;24.50;99.90
22680;DHT22;11507;44.858;10.374;2022-09-09T08:32:07;24.60;99.90
22680;DHT22;11507;44.858;10.374;2022-09-09T08:34:36;24.80;99.90
22680;DHT22;11507;44.858;10.374;2022-09-09T08:37:07;24.90;99.90
22680;DHT22;11507;44.858;10.374;2022-09-09T08:39:37;25.10;99.90
22680;DHT22;11507;44.858;10.374;2022-09-09T08:42:22;25.00;99.90
22680;DHT22;11507;44.858;10.374;2022-09-09T08:50:29;25.50;99.90
22680;DHT22;11507;44.858;10.374;2022-09-09T08:58:32;26.20;99.90
22680;DHT22;11507;44.858;10.374;2022-09-09T09:04:19;26.20;99.90
22680;DHT22;11507;44.858;10.374;2022-09-09T09:10:07;26.70;99.90
22680;DHT22;11507;44.858;10.374;2022-09-09T09:12:40;27.20;99.90
22680;DHT22;11507;44.858;10.374;2022-09-09T09:15:21;27.50;99.90
22680;DHT22;11507;44.858;10.374;2022-09-09T09:17:50;27.90;99.90
22680;DHT22;11507;44.858;10.374;2022-09-09T09:20:28;28.20;99.90
22680;DHT22;11507;44.858;10.374;2022-09-09T09:23:00;28.20;99.90
22680;DHT22;11507;44.858;10.374;2022-09-09T09:25:37;28.30;99.90
22680;DHT22;11507;44.858;10.374;2022-09-09T09:28:17;28.60;99.90
22680;DHT22;11507;44.858;10.374;2022-09-09T09:31:07;29.10;99.90
22680;DHT22;11507;44.858;10.374;2022-09-09T09:33:52;29.60;99.90
22680;DHT22;11507;44.858;10.374;2022-09-09T09:36:32;30.20;99.90
22680;DHT22;11507;44.858;10.374;2022-09-09T09:39:01;30.60;99.90
22680;DHT22;11507;44.858;10.374;2022-09-09T09:41:34;31.00;99.90
22680;DHT22;11507;44.858;10.374;2022-09-09T09:44:01;31.40;99.90
22680;DHT22;11507;44.858;10.374;2022-09-09T09:46:28;31.50;99.90
22680;DHT22;11507;44.858;10.374;2022-09-09T09:49:09;31.80;99.90
22680;DHT22;11507;44.858;10.374;2022-09-09T09:51:37;32.20;99.90
22680;DHT22;11507;44.858;10.374;2022-09-09T09:56:44;32.80;99.90
22680;DHT22;11507;44.858;10.374;2022-09-09T10:01:54;33.20;99.90
22680;DHT22;11507;44.858;10.374;2022-09-09T10:04:22;33.20;99.90
22680;DHT22;11507;44.858;10.374;2022-09-09T10:06:54;33.20;99.90
22680;DHT22;11507;44.858;10.374;2022-09-09T10:09:28;33.40;99.90
22680;DHT22;11507;44.858;10.374;2022-09-09T10:14:35;32.70;99.90
22680;DHT22;11507;44.858;10.374;2022-09-09T10:20:27;32.80;99.90
22680;DHT22;11507;44.858;10.374;2022-09-09T10:26:10;32.70;99.90
22680;DHT22;11507;44.858;10.374;2022-09-09T10:31:27;31.60;99.90
22680;DHT22;11507;44.858;10.374;2022-09-09T10:34:01;31.60;99.90
22680;DHT22;11507;44.858;10.374;2022-09-09T10:36:28;32.10;99.90
22680;DHT22;11507;44.858;10.374;2022-09-09T10:39:06;32.70;99.90
22680;DHT22;11507;44.858;10.374;2022-09-09T10:55:45;35.50;94.80
22680;DHT22;11507;44.858;10.374;2022-09-09T10:58:30;36.00;91.70
22680;DHT22;11507;44.858;10.374;2022-09-09T11:01:06;36.20;92.10
22680;DHT22;11507;44.858;10.374;2022-09-09T11:03:35;36.50;90.10
22680;DHT22;11507;44.858;10.374;2022-09-09T11:06:11;36.80;88.60
22680;DHT22;11507;44.858;10.374;2022-09-09T11:08:39;37.20;88.30
22680;DHT22;11507;44.858;10.374;2022-09-09T11:11:13;37.70;88.40
22680;DHT22;11507;44.858;10.374;2022-09-09T11:14:15;38.00;85.10
22680;DHT22;11507;44.858;10.374;2022-09-09T11:16:50;38.00;84.30
22680;DHT22;11507;44.858;10.374;2022-09-09T11:19:44;38.20;78.90
22680;DHT22;11507;44.858;10.374;2022-09-09T11:22:53;38.40;80.90
22680;DHT22;11507;44.858;10.374;2022-09-09T11:25:38;38.80;81.10
22680;DHT22;11507;44.858;10.374;2022-09-09T11:38:52;39.40;74.70
22680;DHT22;11507;44.858;10.374;2022-09-09T11:41:20;39.80;69.70
22680;DHT22;11507;44.858;10.374;2022-09-09T11:43:51;39.80;68.30
22680;DHT22;11507;44.858;10.374;2022-09-09T11:46:20;39.90;68.90
22680;DHT22;11507;44.858;10.374;2022-09-09T11:48:59;40.10;68.50
22680;DHT22;11507;44.858;10.374;2022-09-09T11:51:28;40.60;68.00
22680;DHT22;11507;44.858;10.374;2022-09-09T11:53:57;41.10;67.30
22680;DHT22;11507;44.858;10.374;2022-09-09T12:01:50;38.80;66.00
22680;DHT22;11507;44.858;10.374;2022-09-09T12:12:28;40.00;60.90
22680;DHT22;11507;44.858;10.374;2022-09-09T12:17:43;40.80;60.80
22680;DHT22;11507;44.858;10.374;2022-09-09T12:33:46;40.30;57.60
22680;DHT22;11507;44.858;10.374;2022-09-09T12:38:45;40.60;59.70
22680;DHT22;11507;44.858;10.374;2022-09-09T12:41:23;41.20;59.00
22680;DHT22;11507;44.858;10.374;2022-09-09T12:43:49;41.60;58.40
22680;DHT22;11507;44.858;10.374;2022-09-09T12:46:36;42.10;55.70
22680;DHT22;11507;44.858;10.374;2022-09-09T12:49:04;42.60;55.20
22680;DHT22;11507;44.858;10.374;2022-09-09T12:51:33;43.10;54.20
22680;DHT22;11507;44.858;10.374;2022-09-09T12:54:00;43.50;54.00
22680;DHT22;11507;44.858;10.374;2022-09-09T12:56:30;43.60;52.40
22680;DHT22;11507;44.858;10.374;2022-09-09T12:58:57;42.70;50.40
22680;DHT22;11507;44.858;10.374;2022-09-09T13:01:32;42.40;51.60
22680;DHT22;11507;44.858;10.374;2022-09-09T13:04:01;41.40;51.40
22680;DHT22;11507;44.858;10.374;2022-09-09T13:06:29;40.60;52.50
22680;DHT22;11507;44.858;10.374;2022-09-09T13:08:57;40.30;54.40
22680;DHT22;11507;44.858;10.374;2022-09-09T13:11:34;40.60;55.70
22680;DHT22;11507;44.858;10.374;2022-09-09T13:14:02;41.40;55.90
22680;DHT22;11507;44.858;10.374;2022-09-09T13:16:34;42.00;54.10
22680;DHT22;11507;44.858;10.374;2022-09-09T13:19:15;42.60;52.10
22680;DHT22;11507;44.858;10.374;2022-09-09T13:21:42;43.30;51.50
22680;DHT22;11507;44.858;10.374;2022-09-09T13:24:40;43.50;51.20
22680;DHT22;11507;44.858;10.374;2022-09-09T13:27:29;43.60;50.00
22680;DHT22;11507;44.858;10.374;2022-09-09T13:29:56;43.60;50.50
22680;DHT22;11507;44.858;10.374;2022-09-09T13:32:24;43.80;51.60
22680;DHT22;11507;44.858;10.374;2022-09-09T13:34:59;44.30;49.30
22680;DHT22;11507;44.858;10.374;2022-09-09T13:37:36;44.70;48.20
22680;DHT22;11507;44.858;10.374;2022-09-09T13:40:05;45.00;46.80
22680;DHT22;11507;44.858;10.374;2022-09-09T13:42:39;44.70;47.00
22680;DHT22;11507;44.858;10.374;2022-09-09T13:45:28;44.70;48.50
22680;DHT22;11507;44.858;10.374;2022-09-09T13:47:54;45.00;47.70
22680;DHT22;11507;44.858;10.374;2022-09-09T13:50:28;45.30;47.50
22680;DHT22;11507;44.858;10.374;2022-09-09T13:52:56;45.50;47.50
22680;DHT22;11507;44.858;10.374;2022-09-09T13:55:28;45.80;45.90
22680;DHT22;11507;44.858;10.374;2022-09-09T13:57:58;45.80;45.60
22680;DHT22;11507;44.858;10.374;2022-09-09T14:00:28;45.90;46.00
22680;DHT22;11507;44.858;10.374;2022-09-09T14:02:54;45.90;45.00
22680;DHT22;11507;44.858;10.374;2022-09-09T14:05:23;45.80;45.10
22680;DHT22;11507;44.858;10.374;2022-09-09T14:07:50;45.60;43.90
22680;DHT22;11507;44.858;10.374;2022-09-09T14:10:16;45.50;45.30
22680;DHT22;11507;44.858;10.374;2022-09-09T14:12:42;45.50;45.70
22680;DHT22;11507;44.858;10.374;2022-09-09T14:15:10;45.30;42.70
22680;DHT22;11507;44.858;10.374;2022-09-09T14:17:38;44.70;43.10
22680;DHT22;11507;44.858;10.374;2022-09-09T14:20:06;44.20;43.60
22680;DHT22;11507;44.858;10.374;2022-09-09T14:22:36;43.80;45.40
22680;DHT22;11507;44.858;10.374;2022-09-09T14:25:03;43.90;44.60
22680;DHT22;11507;44.858;10.374;2022-09-09T14:27:29;44.20;46.00
22680;DHT22;11507;44.858;10.374;2022-09-09T14:29:55;44.50;45.40
22680;DHT22;11507;44.858;10.374;2022-09-09T14:32:23;44.10;43.10
22680;DHT22;11507;44.858;10.374;2022-09-09T14:34:49;43.80;45.30
22680;DHT22;11507;44.858;10.374;2022-09-09T14:37:18;43.70;45.20
22680;DHT22;11507;44.858;10.374;2022-09-09T14:39:45;44.00;44.40
22680;DHT22;11507;44.858;10.374;2022-09-09T14:42:13;44.30;44.50
22680;DHT22;11507;44.858;10.374;2022-09-09T14:44:39;44.50;43.90
22680;DHT22;11507;44.858;10.374;2022-09-09T14:47:07;44.20;42.60
22680;DHT22;11507;44.858;10.374;2022-09-09T14:49:35;43.40;43.50
22680;DHT22;11507;44.858;10.374;2022-09-09T14:52:02;42.90;44.40
22680;DHT22;11507;44.858;10.374;2022-09-09T14:54:28;41.60;46.40
22680;DHT22;11507;44.858;10.374;2022-09-09T14:56:54;41.20;47.10
22680;DHT22;11507;44.858;10.374;2022-09-09T14:59:22;40.50;47.40
22680;DHT22;11507;44.858;10.374;2022-09-09T15:01:49;41.20;48.60
22680;DHT22;11507;44.858;10.374;2022-09-09T15:04:16;41.90;47.10
22680;DHT22;11507;44.858;10.374;2022-09-09T15:06:42;42.60;47.00
22680;DHT22;11507;44.858;10.374;2022-09-09T15:09:14;43.40;46.80
22680;DHT22;11507;44.858;10.374;2022-09-09T15:11:40;43.90;46.20
22680;DHT22;11507;44.858;10.374;2022-09-09T15:14:08;44.10;46.00
22680;DHT22;11507;44.858;10.374;2022-09-09T15:16:34;44.30;45.00
22680;DHT22;11507;44.858;10.374;2022-09-09T15:19:01;44.30;44.40
22680;DHT22;11507;44.858;10.374;2022-09-09T15:21:30;44.40;44.40
22680;DHT22;11507;44.858;10.374;2022-09-09T15:23:58;44.30;44.20
22680;DHT22;11507;44.858;10.374;2022-09-09T15:26:25;44.10;44.70
22680;DHT22;11507;44.858;10.374;2022-09-09T15:28:51;43.90;45.00
22680;DHT22;11507;44.858;10.374;2022-09-09T15:31:20;43.80;45.00
22680;DHT22;11507;44.858;10.374;2022-09-09T15:33:56;43.60;45.20
22680;DHT22;11507;44.858;10.374;2022-09-09T15:36:44;43.00;44.10
22680;DHT22;11507;44.858;10.374;2022-09-09T15:39:16;42.80;44.20
22680;DHT22;11507;44.858;10.374;2022-09-09T15:41:44;42.70;45.60
22680;DHT22;11507;44.858;10.374;2022-09-09T15:44:11;42.30;45.60
22680;DHT22;11507;44.858;10.374;2022-09-09T15:46:42;41.60;46.10
22680;DHT22;11507;44.858;10.374;2022-09-09T15:49:11;40.50;47.20
22680;DHT22;11507;44.858;10.374;2022-09-09T15:51:40;39.60;48.60
22680;DHT22;11507;44.858;10.374;2022-09-09T15:54:06;38.70;50.00
22680;DHT22;11507;44.858;10.374;2022-09-09T15:56:32;37.70;51.50
22680;DHT22;11507;44.858;10.374;2022-09-09T15:58:59;36.80;52.70
22680;DHT22;11507;44.858;10.374;2022-09-09T16:01:26;36.10;54.00
22680;DHT22;11507;44.858;10.374;2022-09-09T16:03:53;35.30;55.30
22680;DHT22;11507;44.858;10.374;2022-09-09T16:06:21;34.60;56.50
22680;DHT22;11507;44.858;10.374;2022-09-09T16:08:49;33.90;58.30
22680;DHT22;11507;44.858;10.374;2022-09-09T16:11:22;33.30;59.80
22680;DHT22;11507;44.858;10.374;2022-09-09T16:13:53;32.80;60.80
22680;DHT22;11507;44.858;10.374;2022-09-09T16:16:22;32.40;63.30
22680;DHT22;11507;44.858;10.374;2022-09-09T16:18:50;31.90;64.70
22680;DHT22;11507;44.858;10.374;2022-09-09T16:21:23;31.60;65.70
22680;DHT22;11507;44.858;10.374;2022-09-09T16:23:57;31.30;66.10
22680;DHT22;11507;44.858;10.374;2022-09-09T16:26:27;31.00;68.20
22680;DHT22;11507;44.858;10.374;2022-09-09T16:28:53;30.60;68.80
22680;DHT22;11507;44.858;10.374;2022-09-09T16:31:27;30.40;69.70
22680;DHT22;11507;44.858;10.374;2022-09-09T16:33:57;30.10;71.00
22680;DHT22;11507;44.858;10.374;2022-09-09T16:36:27;30.00;71.50
22680;DHT22;11507;44.858;10.374;2022-09-09T16:38:55;29.70;72.90
22680;DHT22;11507;44.858;10.374;2022-09-09T16:41:21;29.60;73.30
22680;DHT22;11507;44.858;10.374;2022-09-09T16:43:53;29.40;74.60
22680;DHT22;11507;44.858;10.374;2022-09-09T16:46:20;29.20;76.20
22680;DHT22;11507;44.858;10.374;2022-09-09T16:48:47;29.00;76.40
22680;DHT22;11507;44.858;10.374;2022-09-09T16:51:20;28.90;79.00
22680;DHT22;11507;44.858;10.374;2022-09-09T16:53:50;28.60;80.30
22680;DHT22;11507;44.858;10.374;2022-09-09T16:56:18;28.50;81.10
22680;DHT22;11507;44.858;10.374;2022-09-09T16:58:54;28.30;81.50
22680;DHT22;11507;44.858;10.374;2022-09-09T17:01:22;28.10;84.30
22680;DHT22;11507;44.858;10.374;2022-09-09T17:03:54;27.90;90.40
22680;DHT22;11507;44.858;10.374;2022-09-09T17:06:21;27.70;92.20
22680;DHT22;11507;44.858;10.374;2022-09-09T17:08:47;27.40;95.00
22680;DHT22;11507;44.858;10.374;2022-09-09T17:11:18;27.20;98.30
22680;DHT22;11507;44.858;10.374;2022-09-09T17:13:52;27.00;99.90
22680;DHT22;11507;44.858;10.374;2022-09-09T17:16:19;26.80;99.90
22680;DHT22;11507;44.858;10.374;2022-09-09T17:18:48;26.50;99.90
22680;DHT22;11507;44.858;10.374;2022-09-09T17:21:21;26.40;99.90
22680;DHT22;11507;44.858;10.374;2022-09-09T17:23:48;26.20;99.90
22680;DHT22;11507;44.858;10.374;2022-09-09T17:26:18;26.10;99.90
22680;DHT22;11507;44.858;10.374;2022-09-09T17:28:45;26.00;99.90
22680;DHT22;11507;44.858;10.374;2022-09-09T17:31:15;25.90;99.90
22680;DHT22;11507;44.858;10.374;2022-09-09T17:33:45;25.80;99.90
22680;DHT22;11507;44.858;10.374;2022-09-09T17:36:23;25.70;99.90
22680;DHT22;11507;44.858;10.374;2022-09-09T17:38:51;25.50;99.90
22680;DHT22;11507;44.858;10.374;2022-09-09T17:41:22;25.40;99.90
22680;DHT22;11507;44.858;10.374;2022-09-09T17:43:49;25.30;99.90
22680;DHT22;11507;44.858;10.374;2022-09-09T17:46:24;25.20;99.90
22680;DHT22;11507;44.858;10.374;2022-09-09T17:48:52;25.00;99.90
22680;DHT22;11507;44.858;10.374;2022-09-09T17:51:22;24.90;99.90
22680;DHT22;11507;44.858;10.374;2022-09-09T17:53:55;24.80;99.90
22680;DHT22;11507;44.858;10.374;2022-09-09T17:56:27;24.70;99.90
22680;DHT22;11507;44.858;10.374;2022-09-09T17:58:54;24.60;99.90
22680;DHT22;11507;44.858;10.374;2022-09-09T18:01:25;24.50;99.90
22680;DHT22;11507;44.858;10.374;2022-09-09T18:03:54;24.40;99.90
22680;DHT22;11507;44.858;10.374;2022-09-09T18:06:26;24.40;99.90